sensor_id;sensor_type;location;lat;lon;timestamp;pressure;altitude;pressure_sealevel;temperature;humidity
44351;BME280;61130;62.622;17.910;2022-07-23T00:00:38;100964.45;;;13.24;81.28
44351;BME280;61130;62.622;17.910;2022-07-23T00:03:08;100963.00;;;13.28;80.82
44351;BME280;61130;62.622;17.910;2022-07-23T00:05:38;100961.08;;;13.25;82.45
44351;BME280;61130;62.622;17.910;2022-07-23T00:08:08;100959.69;;;13.29;83.92
44351;BME280;61130;62.622;17.910;2022-07-23T00:10:38;100958.54;;;13.13;84.07
44351;BME280;61130;62.622;17.910;2022-07-23T00:13:08;100962.06;;;13.12;83.34
44351;BME280;61130;62.622;17.910;2022-07-23T00:15:38;100968.96;;;12.98;83.87
44351;BME280;61130;62.622;17.910;2022-07-23T00:18:08;100978.15;;;12.97;85.96
44351;BME280;61130;62.622;17.910;2022-07-23T00:20:38;100978.68;;;13.01;83.73
44351;BME280;61130;62.622;17.910;2022-07-23T00:23:08;100985.41;;;12.90;84.93
44351;BME280;61130;62.622;17.910;2022-07-23T00:25:38;100985.16;;;12.88;84.72
44351;BME280;61130;62.622;17.910;2022-07-23T00:28:08;100981.30;;;12.79;83.90
44351;BME280;61130;62.622;17.910;2022-07-23T00:30:38;100981.26;;;12.78;85.03
44351;BME280;61130;62.622;17.910;2022-07-23T00:33:08;100979.02;;;12.58;84.95
44351;BME280;61130;62.622;17.910;2022-07-23T00:35:39;100976.97;;;12.52;87.49
44351;BME280;61130;62.622;17.910;2022-07-23T00:38:10;100975.86;;;12.42;86.96
44351;BME280;61130;62.622;17.910;2022-07-23T00:40:40;100975.14;;;12.41;86.43
44351;BME280;61130;62.622;17.910;2022-07-23T00:43:09;100972.33;;;12.27;90.57
44351;BME280;61130;62.622;17.910;2022-07-23T00:45:39;100969.22;;;12.30;90.10
44351;BME280;61130;62.622;17.910;2022-07-23T00:48:09;100967.65;;;12.36;89.98
44351;BME280;61130;62.622;17.910;2022-07-23T00:50:39;100966.36;;;12.36;89.49
44351;BME280;61130;62.622;17.910;2022-07-23T00:53:09;100966.66;;;12.44;88.95
44351;BME280;61130;62.622;17.910;2022-07-23T00:55:39;100970.49;;;12.51;89.82
44351;BME280;61130;62.622;17.910;2022-07-23T00:58:09;100968.36;;;12.47;88.90
44351;BME280;61130;62.622;17.910;2022-07-23T01:00:39;100973.67;;;12.48;88.70
44351;BME280;61130;62.622;17.910;2022-07-23T01:03:08;100971.78;;;12.41;88.46
44351;BME280;61130;62.622;17.910;2022-07-23T01:05:38;100974.45;;;12.48;89.36
44351;BME280;61130;62.622;17.910;2022-07-23T01:08:09;100974.55;;;12.43;89.55
44351;BME280;61130;62.622;17.910;2022-07-23T01:10:38;100971.24;;;12.45;89.22
44351;BME280;61130;62.622;17.910;2022-07-23T01:13:09;100972.45;;;12.61;87.29
44351;BME280;61130;62.622;17.910;2022-07-23T01:15:38;100974.21;;;12.59;88.28
44351;BME280;61130;62.622;17.910;2022-07-23T01:18:08;100974.67;;;12.47;87.89
44351;BME280;61130;62.622;17.910;2022-07-23T01:20:37;100973.08;;;12.55;88.89
44351;BME280;61130;62.622;17.910;2022-07-23T01:23:07;100970.72;;;12.61;87.76
44351;BME280;61130;62.622;17.910;2022-07-23T01:25:40;100972.32;;;12.58;88.51
44351;BME280;61130;62.622;17.910;2022-07-23T01:28:22;100972.05;;;12.57;87.98
44351;BME280;61130;62.622;17.910;2022-07-23T01:30:52;100973.91;;;12.51;89.31
44351;BME280;61130;62.622;17.910;2022-07-23T01:34:14;100970.85;;;12.40;88.55
44351;BME280;61130;62.622;17.910;2022-07-23T01:36:49;100972.64;;;12.45;89.07
44351;BME280;61130;62.622;17.910;2022-07-23T01:39:18;100971.51;;;12.45;88.70
44351;BME280;61130;62.622;17.910;2022-07-23T01:41:48;100970.60;;;12.51;88.26
44351;BME280;61130;62.622;17.910;2022-07-23T01:44:18;100973.56;;;12.47;88.89
44351;BME280;61130;62.622;17.910;2022-07-23T01:46:48;100970.01;;;12.50;89.03
44351;BME280;61130;62.622;17.910;2022-07-23T01:49:18;100971.43;;;12.28;88.85
44351;BME280;61130;62.622;17.910;2022-07-23T01:51:48;100969.37;;;12.37;88.37
44351;BME280;61130;62.622;17.910;2022-07-23T01:54:18;100968.10;;;12.24;88.81
44351;BME280;61130;62.622;17.910;2022-07-23T01:56:48;100966.64;;;12.20;89.38
44351;BME280;61130;62.622;17.910;2022-07-23T01:59:18;100965.75;;;12.30;89.66
44351;BME280;61130;62.622;17.910;2022-07-23T02:01:48;100964.29;;;12.25;89.54
44351;BME280;61130;62.622;17.910;2022-07-23T02:04:18;100962.34;;;12.25;89.45
44351;BME280;61130;62.622;17.910;2022-07-23T02:06:48;100960.88;;;12.11;89.74
44351;BME280;61130;62.622;17.910;2022-07-23T02:09:18;100960.48;;;12.36;89.47
44351;BME280;61130;62.622;17.910;2022-07-23T02:11:48;100959.55;;;12.19;89.66
44351;BME280;61130;62.622;17.910;2022-07-23T02:14:18;100955.23;;;12.21;89.84
44351;BME280;61130;62.622;17.910;2022-07-23T02:16:47;100953.94;;;12.21;90.59
44351;BME280;61130;62.622;17.910;2022-07-23T02:19:16;100953.61;;;12.30;90.44
44351;BME280;61130;62.622;17.910;2022-07-23T02:21:46;100955.32;;;12.37;90.21
44351;BME280;61130;62.622;17.910;2022-07-23T02:24:16;100955.17;;;12.31;90.10
44351;BME280;61130;62.622;17.910;2022-07-23T02:26:46;100951.84;;;12.23;89.07
44351;BME280;61130;62.622;17.910;2022-07-23T02:29:16;100950.25;;;12.10;89.39
44351;BME280;61130;62.622;17.910;2022-07-23T02:31:46;100947.48;;;12.23;90.90
44351;BME280;61130;62.622;17.910;2022-07-23T02:34:14;100942.48;;;12.14;91.31
44351;BME280;61130;62.622;17.910;2022-07-23T02:36:42;100942.36;;;12.10;91.59
44351;BME280;61130;62.622;17.910;2022-07-23T02:39:15;100938.24;;;12.03;91.14
44351;BME280;61130;62.622;17.910;2022-07-23T02:41:45;100937.34;;;12.09;91.30
44351;BME280;61130;62.622;17.910;2022-07-23T02:44:15;100936.47;;;12.07;91.32
44351;BME280;61130;62.622;17.910;2022-07-23T02:46:45;100934.45;;;12.17;89.16
44351;BME280;61130;62.622;17.910;2022-07-23T02:49:15;100936.65;;;12.26;90.53
44351;BME280;61130;62.622;17.910;2022-07-23T02:51:45;100936.90;;;12.24;90.63
44351;BME280;61130;62.622;17.910;2022-07-23T02:54:15;100937.76;;;12.22;90.08
44351;BME280;61130;62.622;17.910;2022-07-23T02:56:45;100936.18;;;12.23;90.14
44351;BME280;61130;62.622;17.910;2022-07-23T02:59:13;100935.03;;;12.26;89.08
44351;BME280;61130;62.622;17.910;2022-07-23T03:01:44;100938.65;;;12.27;88.09
44351;BME280;61130;62.622;17.910;2022-07-23T03:04:13;100939.98;;;12.33;89.13
44351;BME280;61130;62.622;17.910;2022-07-23T03:06:43;100940.10;;;12.33;89.88
44351;BME280;61130;62.622;17.910;2022-07-23T03:09:14;100937.94;;;12.41;89.41
44351;BME280;61130;62.622;17.910;2022-07-23T03:11:43;100936.33;;;12.34;89.14
44351;BME280;61130;62.622;17.910;2022-07-23T03:14:13;100937.17;;;12.29;88.71
44351;BME280;61130;62.622;17.910;2022-07-23T03:16:43;100933.08;;;12.35;87.89
44351;BME280;61130;62.622;17.910;2022-07-23T03:19:13;100934.20;;;12.45;88.37
44351;BME280;61130;62.622;17.910;2022-07-23T03:21:43;100935.10;;;12.44;88.64
44351;BME280;61130;62.622;17.910;2022-07-23T03:24:13;100936.93;;;12.60;87.60
44351;BME280;61130;62.622;17.910;2022-07-23T03:26:43;100939.68;;;12.53;88.11
44351;BME280;61130;62.622;17.910;2022-07-23T03:29:13;100939.89;;;12.60;86.06
44351;BME280;61130;62.622;17.910;2022-07-23T03:31:43;100940.06;;;12.59;86.92
44351;BME280;61130;62.622;17.910;2022-07-23T03:34:13;100939.53;;;12.61;86.69
44351;BME280;61130;62.622;17.910;2022-07-23T03:36:43;100932.36;;;12.66;84.78
44351;BME280;61130;62.622;17.910;2022-07-23T03:39:13;100936.13;;;12.74;85.26
44351;BME280;61130;62.622;17.910;2022-07-23T03:41:43;100931.90;;;12.81;86.34
44351;BME280;61130;62.622;17.910;2022-07-23T03:44:13;100931.50;;;12.82;84.26
44351;BME280;61130;62.622;17.910;2022-07-23T03:46:43;100931.83;;;12.87;83.47
44351;BME280;61130;62.622;17.910;2022-07-23T03:49:13;100926.09;;;12.89;81.84
44351;BME280;61130;62.622;17.910;2022-07-23T03:51:43;100925.67;;;12.76;82.23
44351;BME280;61130;62.622;17.910;2022-07-23T03:54:14;100921.08;;;12.86;81.83
44351;BME280;61130;62.622;17.910;2022-07-23T03:56:43;100926.30;;;12.94;82.72
44351;BME280;61130;62.622;17.910;2022-07-23T03:59:13;100914.26;;;12.97;83.24
44351;BME280;61130;62.622;17.910;2022-07-23T04:03:18;100915.83;;;12.93;82.11
44351;BME280;61130;62.622;17.910;2022-07-23T04:05:48;100913.31;;;13.05;82.63
44351;BME280;61130;62.622;17.910;2022-07-23T04:08:16;100915.05;;;13.16;79.66
44351;BME280;61130;62.622;17.910;2022-07-23T04:10:46;100906.82;;;13.33;78.45
44351;BME280;61130;62.622;17.910;2022-07-23T04:13:14;100907.92;;;13.35;79.81
44351;BME280;61130;62.622;17.910;2022-07-23T04:15:42;100907.38;;;13.59;77.90
44351;BME280;61130;62.622;17.910;2022-07-23T04:18:12;100903.86;;;13.52;77.00
44351;BME280;61130;62.622;17.910;2022-07-23T04:20:40;100901.33;;;13.60;78.72
44351;BME280;61130;62.622;17.910;2022-07-23T04:23:09;100902.41;;;13.62;78.24
44351;BME280;61130;62.622;17.910;2022-07-23T04:25:39;100903.81;;;13.74;78.57
44351;BME280;61130;62.622;17.910;2022-07-23T04:28:07;100900.89;;;13.77;78.22
44351;BME280;61130;62.622;17.910;2022-07-23T04:30:38;100902.35;;;13.79;74.66
44351;BME280;61130;62.622;17.910;2022-07-23T04:33:07;100899.53;;;13.90;74.41
44351;BME280;61130;62.622;17.910;2022-07-23T04:35:36;100900.28;;;13.92;77.17
44351;BME280;61130;62.622;17.910;2022-07-23T04:38:05;100899.97;;;14.08;75.91
44351;BME280;61130;62.622;17.910;2022-07-23T04:40:33;100901.45;;;14.18;76.04
44351;BME280;61130;62.622;17.910;2022-07-23T04:43:03;100898.61;;;14.37;75.60
44351;BME280;61130;62.622;17.910;2022-07-23T04:45:32;100895.77;;;14.42;75.95
44351;BME280;61130;62.622;17.910;2022-07-23T04:48:02;100895.48;;;14.62;72.47
44351;BME280;61130;62.622;17.910;2022-07-23T04:50:32;100892.89;;;14.75;71.23
44351;BME280;61130;62.622;17.910;2022-07-23T04:53:01;100891.69;;;15.07;69.26
44351;BME280;61130;62.622;17.910;2022-07-23T04:55:30;100893.44;;;15.81;67.96
44351;BME280;61130;62.622;17.910;2022-07-23T04:58:00;100893.35;;;16.62;64.56
44351;BME280;61130;62.622;17.910;2022-07-23T05:00:28;100891.02;;;17.14;61.71
44351;BME280;61130;62.622;17.910;2022-07-23T05:02:58;100886.48;;;17.52;61.42
44351;BME280;61130;62.622;17.910;2022-07-23T05:05:28;100882.53;;;18.26;57.43
44351;BME280;61130;62.622;17.910;2022-07-23T05:07:56;100886.62;;;19.17;56.46
44351;BME280;61130;62.622;17.910;2022-07-23T05:10:26;100876.46;;;19.51;53.51
44351;BME280;61130;62.622;17.910;2022-07-23T05:12:56;100873.47;;;19.47;53.63
44351;BME280;61130;62.622;17.910;2022-07-23T05:15:26;100878.21;;;18.61;54.30
44351;BME280;61130;62.622;17.910;2022-07-23T05:17:56;100878.86;;;18.21;57.74
44351;BME280;61130;62.622;17.910;2022-07-23T05:20:25;100879.50;;;18.41;54.48
44351;BME280;61130;62.622;17.910;2022-07-23T05:22:54;100882.47;;;18.95;55.02
44351;BME280;61130;62.622;17.910;2022-07-23T05:25:22;100874.26;;;19.86;52.51
44351;BME280;61130;62.622;17.910;2022-07-23T05:27:52;100873.34;;;22.03;45.95
44351;BME280;61130;62.622;17.910;2022-07-23T05:30:22;100873.17;;;23.19;44.78
44351;BME280;61130;62.622;17.910;2022-07-23T05:32:51;100873.69;;;23.06;41.95
44351;BME280;61130;62.622;17.910;2022-07-23T05:35:20;100878.79;;;22.21;45.72
44351;BME280;61130;62.622;17.910;2022-07-23T05:37:49;100877.56;;;22.11;46.34
44351;BME280;61130;62.622;17.910;2022-07-23T05:40:18;100875.75;;;22.10;45.83
44351;BME280;61130;62.622;17.910;2022-07-23T05:42:47;100878.30;;;22.38;44.89
44351;BME280;61130;62.622;17.910;2022-07-23T05:45:16;100876.12;;;21.59;46.61
44351;BME280;61130;62.622;17.910;2022-07-23T05:47:47;100880.60;;;20.13;48.22
44351;BME280;61130;62.622;17.910;2022-07-23T05:50:17;100886.33;;;19.29;50.23
44351;BME280;61130;62.622;17.910;2022-07-23T05:52:46;100890.23;;;18.54;49.39
44351;BME280;61130;62.622;17.910;2022-07-23T05:55:16;100888.08;;;18.28;53.95
44351;BME280;61130;62.622;17.910;2022-07-23T05:57:46;100883.27;;;18.16;51.19
44351;BME280;61130;62.622;17.910;2022-07-23T06:00:14;100887.21;;;18.08;51.61
44351;BME280;61130;62.622;17.910;2022-07-23T06:02:44;100891.10;;;18.02;51.76
44351;BME280;61130;62.622;17.910;2022-07-23T06:05:14;100891.40;;;17.81;54.39
44351;BME280;61130;62.622;17.910;2022-07-23T06:07:44;100892.87;;;17.95;55.15
44351;BME280;61130;62.622;17.910;2022-07-23T06:10:14;100896.00;;;17.89;58.47
44351;BME280;61130;62.622;17.910;2022-07-23T06:12:44;100888.58;;;17.95;53.62
44351;BME280;61130;62.622;17.910;2022-07-23T06:15:14;100889.91;;;18.21;54.44
44351;BME280;61130;62.622;17.910;2022-07-23T06:17:43;100893.90;;;17.90;54.99
44351;BME280;61130;62.622;17.910;2022-07-23T06:20:13;100897.17;;;17.86;51.84
44351;BME280;61130;62.622;17.910;2022-07-23T06:22:42;100896.81;;;17.31;53.30
44351;BME280;61130;62.622;17.910;2022-07-23T06:25:11;100901.50;;;17.18;56.05
44351;BME280;61130;62.622;17.910;2022-07-23T06:27:40;100902.60;;;17.00;57.39
44351;BME280;61130;62.622;17.910;2022-07-23T06:30:09;100910.08;;;16.98;54.40
44351;BME280;61130;62.622;17.910;2022-07-23T06:32:38;100908.80;;;16.65;57.51
44351;BME280;61130;62.622;17.910;2022-07-23T06:35:07;100904.90;;;16.56;54.42
44351;BME280;61130;62.622;17.910;2022-07-23T06:37:37;100906.68;;;16.66;55.13
44351;BME280;61130;62.622;17.910;2022-07-23T06:40:06;100913.04;;;16.84;56.23
44351;BME280;61130;62.622;17.910;2022-07-23T06:42:37;100921.22;;;16.50;57.92
44351;BME280;61130;62.622;17.910;2022-07-23T06:45:08;100922.50;;;16.36;59.04
44351;BME280;61130;62.622;17.910;2022-07-23T06:47:37;100924.98;;;16.42;57.49
44351;BME280;61130;62.622;17.910;2022-07-23T06:50:07;100923.15;;;16.33;58.78
44351;BME280;61130;62.622;17.910;2022-07-23T06:52:38;100921.43;;;16.63;59.54
44351;BME280;61130;62.622;17.910;2022-07-23T06:55:07;100922.59;;;17.04;57.98
44351;BME280;61130;62.622;17.910;2022-07-23T06:57:38;100915.49;;;18.85;52.57
44351;BME280;61130;62.622;17.910;2022-07-23T07:00:07;100909.88;;;22.61;42.17
44351;BME280;61130;62.622;17.910;2022-07-23T07:02:38;100902.42;;;24.79;36.07
44351;BME280;61130;62.622;17.910;2022-07-23T07:05:07;100897.21;;;26.03;32.74
44351;BME280;61130;62.622;17.910;2022-07-23T07:07:37;100901.55;;;26.19;36.31
44351;BME280;61130;62.622;17.910;2022-07-23T07:10:07;100902.25;;;25.84;33.18
44351;BME280;61130;62.622;17.910;2022-07-23T07:12:38;100901.24;;;26.11;36.98
44351;BME280;61130;62.622;17.910;2022-07-23T07:15:08;100897.28;;;26.65;35.77
44351;BME280;61130;62.622;17.910;2022-07-23T07:17:38;100900.76;;;24.49;35.47
44351;BME280;61130;62.622;17.910;2022-07-23T07:20:09;100908.44;;;23.61;37.94
44351;BME280;61130;62.622;17.910;2022-07-23T07:22:37;100902.32;;;24.71;38.45
44351;BME280;61130;62.622;17.910;2022-07-23T07:25:08;100902.96;;;24.50;38.10
44351;BME280;61130;62.622;17.910;2022-07-23T07:27:38;100908.89;;;24.14;39.79
44351;BME280;61130;62.622;17.910;2022-07-23T07:30:08;100906.74;;;24.69;36.47
44351;BME280;61130;62.622;17.910;2022-07-23T07:32:39;100905.23;;;25.52;35.94
44351;BME280;61130;62.622;17.910;2022-07-23T07:35:09;100902.39;;;25.59;36.30
44351;BME280;61130;62.622;17.910;2022-07-23T07:37:38;100900.50;;;25.58;38.94
44351;BME280;61130;62.622;17.910;2022-07-23T07:40:09;100899.56;;;26.02;35.89
44351;BME280;61130;62.622;17.910;2022-07-23T07:42:45;100900.75;;;25.51;34.29
44351;BME280;61130;62.622;17.910;2022-07-23T07:45:15;100900.89;;;24.15;36.63
44351;BME280;61130;62.622;17.910;2022-07-23T07:47:44;100900.45;;;23.67;37.32
44351;BME280;61130;62.622;17.910;2022-07-23T07:50:14;100897.54;;;23.79;36.58
44351;BME280;61130;62.622;17.910;2022-07-23T07:52:44;100904.97;;;23.78;36.89
44351;BME280;61130;62.622;17.910;2022-07-23T07:55:14;100904.68;;;24.05;35.64
44351;BME280;61130;62.622;17.910;2022-07-23T07:57:44;100896.26;;;24.39;36.30
44351;BME280;61130;62.622;17.910;2022-07-23T08:00:14;100909.85;;;24.01;34.24
44351;BME280;61130;62.622;17.910;2022-07-23T08:02:45;100910.52;;;23.32;36.72
44351;BME280;61130;62.622;17.910;2022-07-23T08:05:19;100906.35;;;22.36;37.37
44351;BME280;61130;62.622;17.910;2022-07-23T08:07:48;100907.96;;;21.83;40.50
44351;BME280;61130;62.622;17.910;2022-07-23T08:10:19;100908.12;;;21.85;40.53
44351;BME280;61130;62.622;17.910;2022-07-23T08:12:50;100904.67;;;22.23;44.86
44351;BME280;61130;62.622;17.910;2022-07-23T08:15:20;100903.55;;;22.35;42.19
44351;BME280;61130;62.622;17.910;2022-07-23T08:17:50;100903.98;;;22.45;38.82
44351;BME280;61130;62.622;17.910;2022-07-23T08:20:21;100906.85;;;22.23;43.82
44351;BME280;61130;62.622;17.910;2022-07-23T08:22:53;100906.44;;;21.81;43.68
44351;BME280;61130;62.622;17.910;2022-07-23T08:25:26;100905.20;;;21.40;44.05
44351;BME280;61130;62.622;17.910;2022-07-23T08:27:57;100907.92;;;21.71;42.67
44351;BME280;61130;62.622;17.910;2022-07-23T08:30:26;100909.31;;;21.51;39.86
44351;BME280;61130;62.622;17.910;2022-07-23T08:32:57;100911.66;;;21.12;40.11
44351;BME280;61130;62.622;17.910;2022-07-23T08:35:30;100909.13;;;20.98;41.31
44351;BME280;61130;62.622;17.910;2022-07-23T08:38:02;100911.77;;;20.98;39.58
44351;BME280;61130;62.622;17.910;2022-07-23T08:40:35;100910.29;;;20.90;40.60
44351;BME280;61130;62.622;17.910;2022-07-23T08:43:08;100902.26;;;21.68;39.60
44351;BME280;61130;62.622;17.910;2022-07-23T08:45:39;100903.09;;;22.11;43.31
44351;BME280;61130;62.622;17.910;2022-07-23T08:48:12;100904.17;;;22.77;38.82
44351;BME280;61130;62.622;17.910;2022-07-23T08:50:44;100907.78;;;22.13;37.73
44351;BME280;61130;62.622;17.910;2022-07-23T08:53:14;100912.66;;;21.62;42.34
44351;BME280;61130;62.622;17.910;2022-07-23T08:55:44;100907.86;;;21.70;42.11
44351;BME280;61130;62.622;17.910;2022-07-23T08:58:14;100912.35;;;20.97;40.63
44351;BME280;61130;62.622;17.910;2022-07-23T09:00:45;100907.40;;;20.99;42.81
44351;BME280;61130;62.622;17.910;2022-07-23T09:03:17;100900.93;;;21.59;38.25
44351;BME280;61130;62.622;17.910;2022-07-23T09:05:47;100898.23;;;22.05;39.02
44351;BME280;61130;62.622;17.910;2022-07-23T09:08:19;100902.92;;;22.66;42.17
44351;BME280;61130;62.622;17.910;2022-07-23T09:10:52;100897.73;;;22.87;36.83
44351;BME280;61130;62.622;17.910;2022-07-23T09:13:28;100894.83;;;22.65;34.38
44351;BME280;61130;62.622;17.910;2022-07-23T09:16:02;100893.23;;;22.69;39.83
44351;BME280;61130;62.622;17.910;2022-07-23T09:18:34;100894.25;;;22.55;41.55
44351;BME280;61130;62.622;17.910;2022-07-23T09:21:09;100890.03;;;23.02;42.29
44351;BME280;61130;62.622;17.910;2022-07-23T09:23:41;100890.21;;;23.35;40.70
44351;BME280;61130;62.622;17.910;2022-07-23T09:26:27;100884.76;;;23.53;39.32
44351;BME280;61130;62.622;17.910;2022-07-23T09:29:00;100886.88;;;23.70;39.07
44351;BME280;61130;62.622;17.910;2022-07-23T09:31:33;100886.45;;;23.71;42.05
44351;BME280;61130;62.622;17.910;2022-07-23T09:34:08;100883.39;;;23.84;34.88
44351;BME280;61130;62.622;17.910;2022-07-23T09:36:39;100884.83;;;23.92;37.90
44351;BME280;61130;62.622;17.910;2022-07-23T09:39:10;100887.50;;;24.00;39.74
44351;BME280;61130;62.622;17.910;2022-07-23T09:41:42;100888.73;;;24.00;41.20
44351;BME280;61130;62.622;17.910;2022-07-23T09:44:14;100878.94;;;23.92;37.39
44351;BME280;61130;62.622;17.910;2022-07-23T09:46:44;100881.02;;;23.74;39.07
44351;BME280;61130;62.622;17.910;2022-07-23T09:49:16;100883.54;;;23.66;37.64
44351;BME280;61130;62.622;17.910;2022-07-23T09:51:48;100882.78;;;23.61;34.74
44351;BME280;61130;62.622;17.910;2022-07-23T09:54:28;100877.24;;;23.11;34.21
44351;BME280;61130;62.622;17.910;2022-07-23T09:56:59;100871.99;;;22.93;40.31
44351;BME280;61130;62.622;17.910;2022-07-23T09:59:31;100870.26;;;22.60;39.46
44351;BME280;61130;62.622;17.910;2022-07-23T10:03:19;100872.18;;;21.96;40.16
44351;BME280;61130;62.622;17.910;2022-07-23T10:05:51;100865.91;;;22.06;37.14
44351;BME280;61130;62.622;17.910;2022-07-23T10:08:22;100872.12;;;21.94;42.80
44351;BME280;61130;62.622;17.910;2022-07-23T10:10:51;100869.38;;;21.98;40.58
44351;BME280;61130;62.622;17.910;2022-07-23T10:13:24;100871.68;;;21.94;42.37
44351;BME280;61130;62.622;17.910;2022-07-23T10:15:53;100874.12;;;22.01;36.72
44351;BME280;61130;62.622;17.910;2022-07-23T10:18:23;100871.63;;;22.00;43.23
44351;BME280;61130;62.622;17.910;2022-07-23T10:20:53;100870.59;;;22.03;40.87
44351;BME280;61130;62.622;17.910;2022-07-23T10:23:27;100870.06;;;21.91;36.34
44351;BME280;61130;62.622;17.910;2022-07-23T10:26:05;100871.23;;;21.75;39.98
44351;BME280;61130;62.622;17.910;2022-07-23T10:28:53;100871.74;;;21.62;38.13
44351;BME280;61130;62.622;17.910;2022-07-23T10:31:35;100870.11;;;21.46;38.56
44351;BME280;61130;62.622;17.910;2022-07-23T10:34:16;100871.72;;;21.23;38.64
44351;BME280;61130;62.622;17.910;2022-07-23T10:36:52;100861.83;;;21.43;43.11
44351;BME280;61130;62.622;17.910;2022-07-23T10:39:24;100868.26;;;21.73;39.34
44351;BME280;61130;62.622;17.910;2022-07-23T10:42:08;100867.97;;;21.69;37.91
44351;BME280;61130;62.622;17.910;2022-07-23T10:44:41;100868.60;;;21.15;36.79
44351;BME280;61130;62.622;17.910;2022-07-23T10:47:11;100867.38;;;20.90;40.77
44351;BME280;61130;62.622;17.910;2022-07-23T10:49:42;100864.99;;;21.13;37.19
44351;BME280;61130;62.622;17.910;2022-07-23T10:52:20;100861.97;;;21.61;37.48
44351;BME280;61130;62.622;17.910;2022-07-23T10:54:50;100864.40;;;21.63;35.93
44351;BME280;61130;62.622;17.910;2022-07-23T10:57:21;100865.30;;;21.56;38.98
44351;BME280;61130;62.622;17.910;2022-07-23T11:00:25;100867.93;;;21.45;40.24
44351;BME280;61130;62.622;17.910;2022-07-23T11:02:57;100867.78;;;21.64;38.06
44351;BME280;61130;62.622;17.910;2022-07-23T11:05:41;100864.89;;;21.60;36.62
44351;BME280;61130;62.622;17.910;2022-07-23T11:08:14;100867.88;;;21.84;41.78
44351;BME280;61130;62.622;17.910;2022-07-23T11:10:46;100862.69;;;21.84;38.05
44351;BME280;61130;62.622;17.910;2022-07-23T11:13:37;100864.02;;;21.95;40.86
44351;BME280;61130;62.622;17.910;2022-07-23T11:16:13;100858.69;;;21.91;38.14
44351;BME280;61130;62.622;17.910;2022-07-23T11:18:57;100862.59;;;21.68;34.24
44351;BME280;61130;62.622;17.910;2022-07-23T11:21:46;100856.38;;;21.54;38.72
44351;BME280;61130;62.622;17.910;2022-07-23T11:24:19;100857.73;;;21.90;38.34
44351;BME280;61130;62.622;17.910;2022-07-23T11:26:54;100860.41;;;22.01;37.56
44351;BME280;61130;62.622;17.910;2022-07-23T11:29:56;100857.40;;;21.99;35.98
44351;BME280;61130;62.622;17.910;2022-07-23T11:32:31;100859.63;;;21.64;43.26
44351;BME280;61130;62.622;17.910;2022-07-23T11:35:00;100853.39;;;21.93;40.88
44351;BME280;61130;62.622;17.910;2022-07-23T11:37:33;100860.28;;;21.98;38.47
44351;BME280;61130;62.622;17.910;2022-07-23T11:40:07;100863.39;;;22.05;41.70
44351;BME280;61130;62.622;17.910;2022-07-23T11:42:38;100859.12;;;22.05;39.17
44351;BME280;61130;62.622;17.910;2022-07-23T11:45:08;100854.23;;;22.13;41.98
44351;BME280;61130;62.622;17.910;2022-07-23T11:47:37;100853.79;;;22.01;36.20
44351;BME280;61130;62.622;17.910;2022-07-23T11:50:08;100854.66;;;21.92;39.49
44351;BME280;61130;62.622;17.910;2022-07-23T11:52:40;100856.59;;;22.04;43.94
44351;BME280;61130;62.622;17.910;2022-07-23T11:55:11;100852.48;;;22.04;40.79
44351;BME280;61130;62.622;17.910;2022-07-23T11:57:43;100841.64;;;21.83;33.26
44351;BME280;61130;62.622;17.910;2022-07-23T12:00:15;100840.64;;;21.83;41.88
44351;BME280;61130;62.622;17.910;2022-07-23T12:03:03;100840.08;;;21.72;35.86
44351;BME280;61130;62.622;17.910;2022-07-23T12:05:34;100840.03;;;21.40;35.18
44351;BME280;61130;62.622;17.910;2022-07-23T12:08:06;100842.44;;;21.61;39.22
44351;BME280;61130;62.622;17.910;2022-07-23T12:10:37;100843.60;;;21.51;38.54
44351;BME280;61130;62.622;17.910;2022-07-23T12:13:08;100845.19;;;21.56;39.50
44351;BME280;61130;62.622;17.910;2022-07-23T12:15:48;100840.74;;;22.07;42.43
44351;BME280;61130;62.622;17.910;2022-07-23T12:18:20;100845.53;;;22.17;37.36
44351;BME280;61130;62.622;17.910;2022-07-23T12:20:51;100847.56;;;22.14;40.27
44351;BME280;61130;62.622;17.910;2022-07-23T12:23:23;100843.18;;;21.79;40.75
44351;BME280;61130;62.622;17.910;2022-07-23T12:25:54;100844.00;;;22.02;37.74
44351;BME280;61130;62.622;17.910;2022-07-23T12:28:28;100847.95;;;21.63;36.58
44351;BME280;61130;62.622;17.910;2022-07-23T12:30:58;100837.64;;;21.44;34.10
44351;BME280;61130;62.622;17.910;2022-07-23T12:33:30;100832.48;;;21.73;37.58
44351;BME280;61130;62.622;17.910;2022-07-23T12:36:02;100836.14;;;21.73;36.84
44351;BME280;61130;62.622;17.910;2022-07-23T12:38:38;100836.84;;;21.70;34.14
44351;BME280;61130;62.622;17.910;2022-07-23T12:41:10;100843.31;;;21.28;38.78
44351;BME280;61130;62.622;17.910;2022-07-23T12:43:42;100843.52;;;21.41;42.27
44351;BME280;61130;62.622;17.910;2022-07-23T12:46:14;100837.35;;;21.64;35.97
44351;BME280;61130;62.622;17.910;2022-07-23T12:48:52;100842.02;;;21.86;35.51
44351;BME280;61130;62.622;17.910;2022-07-23T12:51:22;100839.34;;;21.60;35.33
44351;BME280;61130;62.622;17.910;2022-07-23T12:53:52;100833.70;;;21.57;35.24
44351;BME280;61130;62.622;17.910;2022-07-23T12:56:29;100831.00;;;21.44;35.46
44351;BME280;61130;62.622;17.910;2022-07-23T12:59:05;100832.16;;;21.64;38.16
44351;BME280;61130;62.622;17.910;2022-07-23T13:01:37;100831.36;;;21.98;39.77
44351;BME280;61130;62.622;17.910;2022-07-23T13:04:08;100830.19;;;22.04;37.90